sensor_id;sensor_type;location;lat;lon;timestamp;pressure;altitude;pressure_sealevel;temperature;humidity
19236;BME280;9752;54.270;12.470;2023-05-20T00:03:52;103036.03;;;6.64;100.00
19236;BME280;9752;54.270;12.470;2023-05-20T00:08:54;103039.63;;;6.50;100.00
19236;BME280;9752;54.270;12.470;2023-05-20T00:13:55;103050.88;;;6.51;100.00
19236;BME280;9752;54.270;12.470;2023-05-20T00:18:58;103054.59;;;6.69;100.00
19236;BME280;9752;54.270;12.470;2023-05-20T00:24:00;103057.25;;;6.54;100.00
19236;BME280;9752;54.270;12.470;2023-05-20T00:29:02;103138.38;;;6.42;100.00
19236;BME280;9752;54.270;12.470;2023-05-20T00:34:05;103221.91;;;6.58;100.00
19236;BME280;9752;54.270;12.470;2023-05-20T00:39:07;103235.50;;;6.64;100.00
19236;BME280;9752;54.270;12.470;2023-05-20T00:44:09;103263.06;;;6.80;100.00
19236;BME280;9752;54.270;12.470;2023-05-20T00:49:12;103282.16;;;6.96;100.00
19236;BME280;9752;54.270;12.470;2023-05-20T00:54:14;103303.97;;;7.14;100.00
19236;BME280;9752;54.270;12.470;2023-05-20T00:59:17;103333.31;;;7.08;100.00
19236;BME280;9752;54.270;12.470;2023-05-20T01:04:20;103360.22;;;7.10;100.00
19236;BME280;9752;54.270;12.470;2023-05-20T01:09:22;103389.91;;;7.06;100.00
19236;BME280;9752;54.270;12.470;2023-05-20T01:14:26;103412.47;;;6.93;100.00
19236;BME280;9752;54.270;12.470;2023-05-20T01:19:35;103434.72;;;6.92;100.00
19236;BME280;9752;54.270;12.470;2023-05-20T01:24:41;103457.59;;;6.96;100.00
19236;BME280;9752;54.270;12.470;2023-05-20T01:29:43;103496.63;;;7.07;100.00
19236;BME280;9752;54.270;12.470;2023-05-20T01:34:46;103518.56;;;7.10;100.00
19236;BME280;9752;54.270;12.470;2023-05-20T01:39:50;103551.16;;;7.24;100.00
19236;BME280;9752;54.270;12.470;2023-05-20T01:44:52;103575.13;;;7.30;100.00
19236;BME280;9752;54.270;12.470;2023-05-20T01:49:54;103603.50;;;7.37;100.00
19236;BME280;9752;54.270;12.470;2023-05-20T01:54:58;103635.78;;;7.34;100.00
19236;BME280;9752;54.270;12.470;2023-05-20T01:59:59;103662.72;;;7.36;100.00
19236;BME280;9752;54.270;12.470;2023-05-20T02:05:01;103691.09;;;7.36;100.00
19236;BME280;9752;54.270;12.470;2023-05-20T02:10:06;103713.25;;;7.41;100.00
19236;BME280;9752;54.270;12.470;2023-05-20T02:15:08;103737.41;;;7.49;100.00
19236;BME280;9752;54.270;12.470;2023-05-20T02:20:11;103757.34;;;7.50;100.00
19236;BME280;9752;54.270;12.470;2023-05-20T02:25:14;103781.50;;;7.50;100.00
19236;BME280;9752;54.270;12.470;2023-05-20T02:30:17;103807.16;;;7.49;100.00
19236;BME280;9752;54.270;12.470;2023-05-20T02:35:19;103827.09;;;7.50;100.00
19236;BME280;9752;54.270;12.470;2023-05-20T02:40:23;103857.88;;;7.48;100.00
19236;BME280;9752;54.270;12.470;2023-05-20T02:45:24;103884.59;;;7.41;100.00
19236;BME280;9752;54.270;12.470;2023-05-20T02:50:26;103900.31;;;7.50;100.00
19236;BME280;9752;54.270;12.470;2023-05-20T02:55:33;103927.47;;;7.61;100.00
19236;BME280;9752;54.270;12.470;2023-05-20T03:00:34;103943.50;;;7.51;100.00
19236;BME280;9752;54.270;12.470;2023-05-20T03:05:40;103968.78;;;7.54;100.00
19236;BME280;9752;54.270;12.470;2023-05-20T03:10:47;103996.47;;;7.62;100.00
19236;BME280;9752;54.270;12.470;2023-05-20T03:15:48;104017.16;;;7.69;100.00
19236;BME280;9752;54.270;12.470;2023-05-20T03:20:50;104027.50;;;7.69;100.00
19236;BME280;9752;54.270;12.470;2023-05-20T03:25:53;104045.94;;;7.65;100.00
19236;BME280;9752;54.270;12.470;2023-05-20T03:30:55;104079.25;;;7.84;100.00
19236;BME280;9752;54.270;12.470;2023-05-20T03:35:57;104130.19;;;7.85;100.00
19236;BME280;9752;54.270;12.470;2023-05-20T03:41:01;104152.56;;;7.91;100.00
19236;BME280;9752;54.270;12.470;2023-05-20T03:46:03;104183.63;;;8.06;100.00
19236;BME280;9752;54.270;12.470;2023-05-20T03:51:05;104207.91;;;8.20;100.00
19236;BME280;9752;54.270;12.470;2023-05-20T03:56:08;104224.09;;;8.47;100.00
19236;BME280;9752;54.270;12.470;2023-05-20T04:01:13;104242.06;;;8.67;100.00
19236;BME280;9752;54.270;12.470;2023-05-20T04:06:14;104247.09;;;8.79;100.00
19236;BME280;9752;54.270;12.470;2023-05-20T04:11:18;104263.59;;;8.94;100.00
19236;BME280;9752;54.270;12.470;2023-05-20T04:16:20;104265.44;;;9.03;100.00
19236;BME280;9752;54.270;12.470;2023-05-20T04:21:22;104270.66;;;9.10;100.00
19236;BME280;9752;54.270;12.470;2023-05-20T04:26:26;104262.88;;;9.17;100.00
19236;BME280;9752;54.270;12.470;2023-05-20T04:31:29;104267.72;;;9.28;100.00
19236;BME280;9752;54.270;12.470;2023-05-20T04:36:32;104266.25;;;9.37;100.00
19236;BME280;9752;54.270;12.470;2023-05-20T04:41:38;104269.56;;;9.51;100.00
19236;BME280;9752;54.270;12.470;2023-05-20T04:46:39;104258.25;;;9.65;100.00
19236;BME280;9752;54.270;12.470;2023-05-20T04:51:41;104256.19;;;9.84;100.00
19236;BME280;9752;54.270;12.470;2023-05-20T04:56:44;104240.94;;;10.08;100.00
19236;BME280;9752;54.270;12.470;2023-05-20T05:01:46;104230.28;;;10.35;100.00
19236;BME280;9752;54.270;12.470;2023-05-20T05:06:48;104199.59;;;10.54;100.00
19236;BME280;9752;54.270;12.470;2023-05-20T05:11:51;104176.81;;;10.82;100.00
19236;BME280;9752;54.270;12.470;2023-05-20T05:16:53;104142.16;;;10.98;100.00
19236;BME280;9752;54.270;12.470;2023-05-20T05:21:55;104101.75;;;11.16;100.00
19236;BME280;9752;54.270;12.470;2023-05-20T05:26:58;104043.56;;;11.38;100.00
19236;BME280;9752;54.270;12.470;2023-05-20T05:31:59;104006.66;;;11.65;100.00
19236;BME280;9752;54.270;12.470;2023-05-20T05:37:01;103941.75;;;11.83;100.00
19236;BME280;9752;54.270;12.470;2023-05-20T05:42:05;103838.03;;;11.28;100.00
19236;BME280;9752;54.270;12.470;2023-05-20T05:47:08;103779.03;;;11.27;100.00
19236;BME280;9752;54.270;12.470;2023-05-20T05:52:10;103747.88;;;11.78;100.00
19236;BME280;9752;54.270;12.470;2023-05-20T05:57:13;103685.69;;;11.97;100.00
19236;BME280;9752;54.270;12.470;2023-05-20T06:02:15;103652.03;;;12.24;100.00
19236;BME280;9752;54.270;12.470;2023-05-20T06:07:17;103592.88;;;12.58;100.00
19236;BME280;9752;54.270;12.470;2023-05-20T06:12:20;103484.78;;;12.81;100.00
19236;BME280;9752;54.270;12.470;2023-05-20T06:17:22;103424.91;;;13.00;100.00
19236;BME280;9752;54.270;12.470;2023-05-20T06:22:24;103370.34;;;13.01;100.00
19236;BME280;9752;54.270;12.470;2023-05-20T06:27:27;103307.78;;;12.82;100.00
19236;BME280;9752;54.270;12.470;2023-05-20T06:32:29;103269.56;;;12.92;100.00
19236;BME280;9752;54.270;12.470;2023-05-20T06:37:32;103219.09;;;13.00;100.00
19236;BME280;9752;54.270;12.470;2023-05-20T06:42:35;103180.97;;;12.81;100.00
19236;BME280;9752;54.270;12.470;2023-05-20T06:47:38;103170.56;;;12.92;100.00
19236;BME280;9752;54.270;12.470;2023-05-20T06:52:41;103152.78;;;13.06;100.00
19236;BME280;9752;54.270;12.470;2023-05-20T06:57:44;103133.47;;;13.44;100.00
19236;BME280;9752;54.270;12.470;2023-05-20T07:02:48;103109.63;;;13.50;100.00
19236;BME280;9752;54.270;12.470;2023-05-20T07:07:50;103080.41;;;13.74;100.00
19236;BME280;9752;54.270;12.470;2023-05-20T07:12:53;103058.94;;;14.09;100.00
19236;BME280;9752;54.270;12.470;2023-05-20T07:17:55;103032.16;;;14.22;100.00
19236;BME280;9752;54.270;12.470;2023-05-20T07:22:57;102997.44;;;14.45;100.00
19236;BME280;9752;54.270;12.470;2023-05-20T07:28:07;102990.56;;;14.35;100.00
19236;BME280;9752;54.270;12.470;2023-05-20T07:33:09;102975.56;;;14.65;100.00
19236;BME280;9752;54.270;12.470;2023-05-20T07:38:11;102965.19;;;14.89;100.00
19236;BME280;9752;54.270;12.470;2023-05-20T07:43:15;102960.75;;;15.33;100.00
19236;BME280;9752;54.270;12.470;2023-05-20T07:48:17;102964.72;;;14.82;100.00
19236;BME280;9752;54.270;12.470;2023-05-20T07:53:19;102957.28;;;14.99;100.00
19236;BME280;9752;54.270;12.470;2023-05-20T07:58:22;102953.69;;;15.20;100.00
19236;BME280;9752;54.270;12.470;2023-05-20T08:03:24;102952.97;;;15.11;100.00
19236;BME280;9752;54.270;12.470;2023-05-20T08:08:47;102958.78;;;15.19;100.00
19236;BME280;9752;54.270;12.470;2023-05-20T08:13:56;102952.13;;;15.93;100.00
19236;BME280;9752;54.270;12.470;2023-05-20T08:19:00;102952.03;;;16.40;100.00
19236;BME280;9752;54.270;12.470;2023-05-20T08:24:03;102947.25;;;16.72;100.00
19236;BME280;9752;54.270;12.470;2023-05-20T08:29:07;102947.44;;;16.50;100.00
19236;BME280;9752;54.270;12.470;2023-05-20T08:34:09;102950.75;;;16.72;100.00
19236;BME280;9752;54.270;12.470;2023-05-20T08:39:12;102949.13;;;16.86;100.00
19236;BME280;9752;54.270;12.470;2023-05-20T08:44:16;102951.59;;;16.71;100.00
19236;BME280;9752;54.270;12.470;2023-05-20T08:49:19;102951.78;;;16.49;100.00
19236;BME280;9752;54.270;12.470;2023-05-20T08:54:21;102940.78;;;16.92;100.00
19236;BME280;9752;54.270;12.470;2023-05-20T08:59:27;102934.75;;;16.93;100.00
19236;BME280;9752;54.270;12.470;2023-05-20T09:04:29;102936.28;;;16.77;100.00
19236;BME280;9752;54.270;12.470;2023-05-20T09:09:32;102927.78;;;17.59;100.00
19236;BME280;9752;54.270;12.470;2023-05-20T09:14:35;102923.44;;;17.59;100.00
19236;BME280;9752;54.270;12.470;2023-05-20T09:19:37;102913.13;;;17.62;100.00
19236;BME280;9752;54.270;12.470;2023-05-20T09:24:39;102919.75;;;18.10;100.00
19236;BME280;9752;54.270;12.470;2023-05-20T09:29:43;102912.38;;;18.46;100.00
19236;BME280;9752;54.270;12.470;2023-05-20T09:34:45;102904.66;;;17.53;100.00
19236;BME280;9752;54.270;12.470;2023-05-20T09:39:54;102900.44;;;18.38;100.00
19236;BME280;9752;54.270;12.470;2023-05-20T09:45:01;102900.50;;;17.83;100.00
19236;BME280;9752;54.270;12.470;2023-05-20T09:50:06;102900.91;;;17.89;100.00
19236;BME280;9752;54.270;12.470;2023-05-20T09:55:09;102888.97;;;17.94;100.00
19236;BME280;9752;54.270;12.470;2023-05-20T10:00:13;102890.44;;;17.63;100.00
19236;BME280;9752;54.270;12.470;2023-05-20T10:05:18;102889.91;;;17.95;100.00
19236;BME280;9752;54.270;12.470;2023-05-20T10:10:27;102879.88;;;18.03;100.00
19236;BME280;9752;54.270;12.470;2023-05-20T10:15:40;102878.75;;;18.41;100.00
19236;BME280;9752;54.270;12.470;2023-05-20T10:20:45;102879.38;;;18.37;100.00
19236;BME280;9752;54.270;12.470;2023-05-20T10:25:50;102883.00;;;18.39;100.00
19236;BME280;9752;54.270;12.470;2023-05-20T10:30:53;102867.56;;;18.02;100.00
19236;BME280;9752;54.270;12.470;2023-05-20T10:35:57;102867.50;;;17.47;100.00
19236;BME280;9752;54.270;12.470;2023-05-20T10:41:07;102864.13;;;16.83;100.00
19236;BME280;9752;54.270;12.470;2023-05-20T10:46:16;102857.13;;;17.08;100.00
19236;BME280;9752;54.270;12.470;2023-05-20T10:51:19;102870.34;;;17.10;100.00
19236;BME280;9752;54.270;12.470;2023-05-20T10:56:22;102860.25;;;17.16;100.00
19236;BME280;9752;54.270;12.470;2023-05-20T11:01:26;102853.72;;;17.36;100.00
19236;BME280;9752;54.270;12.470;2023-05-20T11:06:27;102841.28;;;17.33;100.00
19236;BME280;9752;54.270;12.470;2023-05-20T11:11:29;102831.63;;;18.01;100.00
19236;BME280;9752;54.270;12.470;2023-05-20T11:16:32;102824.63;;;18.29;100.00
19236;BME280;9752;54.270;12.470;2023-05-20T11:21:41;102822.94;;;18.45;100.00
19236;BME280;9752;54.270;12.470;2023-05-20T11:26:43;102823.19;;;18.49;100.00
19236;BME280;9752;54.270;12.470;2023-05-20T11:31:48;102820.81;;;18.24;100.00
19236;BME280;9752;54.270;12.470;2023-05-20T11:36:55;102823.97;;;18.91;100.00
19236;BME280;9752;54.270;12.470;2023-05-20T11:41:57;102827.25;;;18.01;100.00
19236;BME280;9752;54.270;12.470;2023-05-20T11:47:01;102817.75;;;18.31;100.00
19236;BME280;9752;54.270;12.470;2023-05-20T11:52:07;102811.78;;;18.06;100.00
19236;BME280;9752;54.270;12.470;2023-05-20T11:57:10;102799.00;;;18.25;100.00
19236;BME280;9752;54.270;12.470;2023-05-20T12:02:13;102807.66;;;18.82;100.00
19236;BME280;9752;54.270;12.470;2023-05-20T12:07:14;102811.25;;;18.69;100.00
19236;BME280;9752;54.270;12.470;2023-05-20T12:12:16;102807.63;;;18.67;100.00
19236;BME280;9752;54.270;12.470;2023-05-20T12:17:20;102794.94;;;18.75;100.00
19236;BME280;9752;54.270;12.470;2023-05-20T12:22:22;102802.16;;;18.20;100.00
19236;BME280;9752;54.270;12.470;2023-05-20T12:27:24;102800.72;;;18.40;100.00
19236;BME280;9752;54.270;12.470;2023-05-20T12:32:27;102799.41;;;18.18;100.00
19236;BME280;9752;54.270;12.470;2023-05-20T12:37:28;102803.78;;;18.18;100.00
19236;BME280;9752;54.270;12.470;2023-05-20T12:42:30;102790.97;;;18.82;100.00
19236;BME280;9752;54.270;12.470;2023-05-20T12:47:34;102790.28;;;19.16;100.00
19236;BME280;9752;54.270;12.470;2023-05-20T12:52:36;102790.16;;;19.29;100.00
19236;BME280;9752;54.270;12.470;2023-05-20T12:57:38;102783.56;;;19.21;100.00
19236;BME280;9752;54.270;12.470;2023-05-20T13:02:42;102789.41;;;18.70;100.00
19236;BME280;9752;54.270;12.470;2023-05-20T13:07:44;102786.44;;;18.94;100.00
19236;BME280;9752;54.270;12.470;2023-05-20T13:12:45;102772.34;;;18.49;100.00
19236;BME280;9752;54.270;12.470;2023-05-20T13:17:48;102761.25;;;18.83;100.00
19236;BME280;9752;54.270;12.470;2023-05-20T13:22:50;102745.97;;;19.07;100.00
19236;BME280;9752;54.270;12.470;2023-05-20T13:27:52;102764.34;;;19.22;100.00
19236;BME280;9752;54.270;12.470;2023-05-20T13:32:55;102752.78;;;19.20;100.00
19236;BME280;9752;54.270;12.470;2023-05-20T13:37:57;102755.28;;;19.17;100.00
19236;BME280;9752;54.270;12.470;2023-05-20T13:42:58;102750.25;;;19.21;100.00
19236;BME280;9752;54.270;12.470;2023-05-20T13:48:02;102752.22;;;18.79;100.00
19236;BME280;9752;54.270;12.470;2023-05-20T13:53:03;102736.13;;;19.19;100.00
19236;BME280;9752;54.270;12.470;2023-05-20T13:58:05;102725.94;;;19.73;100.00
19236;BME280;9752;54.270;12.470;2023-05-20T14:03:09;102724.69;;;19.19;100.00
19236;BME280;9752;54.270;12.470;2023-05-20T14:08:11;102736.41;;;18.33;100.00
19236;BME280;9752;54.270;12.470;2023-05-20T14:13:13;102734.13;;;18.24;100.00
19236;BME280;9752;54.270;12.470;2023-05-20T14:18:16;102734.31;;;18.27;100.00
19236;BME280;9752;54.270;12.470;2023-05-20T14:23:18;102726.59;;;18.90;100.00
19236;BME280;9752;54.270;12.470;2023-05-20T14:28:20;102716.38;;;19.11;100.00
19236;BME280;9752;54.270;12.470;2023-05-20T14:33:23;102706.25;;;18.87;100.00
19236;BME280;9752;54.270;12.470;2023-05-20T14:38:25;102706.13;;;18.54;100.00
19236;BME280;9752;54.270;12.470;2023-05-20T14:43:27;102719.69;;;18.32;100.00
19236;BME280;9752;54.270;12.470;2023-05-20T14:48:30;102711.03;;;18.48;100.00
19236;BME280;9752;54.270;12.470;2023-05-20T14:53:32;102701.88;;;18.27;100.00
19236;BME280;9752;54.270;12.470;2023-05-20T14:58:34;102686.63;;;19.28;100.00
19236;BME280;9752;54.270;12.470;2023-05-20T15:03:37;102697.34;;;18.24;100.00
19236;BME280;9752;54.270;12.470;2023-05-20T15:08:38;102683.94;;;17.76;100.00
19236;BME280;9752;54.270;12.470;2023-05-20T15:13:41;102684.97;;;17.50;100.00
19236;BME280;9752;54.270;12.470;2023-05-20T15:18:44;102684.38;;;17.41;100.00
19236;BME280;9752;54.270;12.470;2023-05-20T15:23:46;102672.56;;;17.20;100.00
19236;BME280;9752;54.270;12.470;2023-05-20T15:28:48;102661.50;;;17.39;100.00
19236;BME280;9752;54.270;12.470;2023-05-20T15:33:51;102656.69;;;18.03;100.00
19236;BME280;9752;54.270;12.470;2023-05-20T15:38:53;102655.50;;;18.27;100.00
19236;BME280;9752;54.270;12.470;2023-05-20T15:43:54;102644.16;;;18.28;100.00
19236;BME280;9752;54.270;12.470;2023-05-20T15:48:57;102644.72;;;18.23;100.00
19236;BME280;9752;54.270;12.470;2023-05-20T15:53:59;102637.28;;;18.30;100.00
19236;BME280;9752;54.270;12.470;2023-05-20T15:59:01;102637.78;;;17.80;100.00
19236;BME280;9752;54.270;12.470;2023-05-20T16:04:04;102634.19;;;17.78;100.00
19236;BME280;9752;54.270;12.470;2023-05-20T16:09:05;102630.75;;;17.36;100.00
19236;BME280;9752;54.270;12.470;2023-05-20T16:14:07;102628.84;;;16.65;100.00
19236;BME280;9752;54.270;12.470;2023-05-20T16:19:10;102612.13;;;16.63;100.00
19236;BME280;9752;54.270;12.470;2023-05-20T16:24:12;102622.19;;;16.70;100.00
19236;BME280;9752;54.270;12.470;2023-05-20T16:29:14;102601.97;;;16.54;100.00
19236;BME280;9752;54.270;12.470;2023-05-20T16:34:17;102598.34;;;16.66;100.00
19236;BME280;9752;54.270;12.470;2023-05-20T16:39:19;102597.31;;;17.18;100.00
19236;BME280;9752;54.270;12.470;2023-05-20T16:44:20;102580.50;;;19.28;100.00
19236;BME280;9752;54.270;12.470;2023-05-20T16:49:23;102576.34;;;19.49;100.00
19236;BME280;9752;54.270;12.470;2023-05-20T16:54:25;102576.59;;;20.23;100.00
19236;BME280;9752;54.270;12.470;2023-05-20T16:59:26;102581.81;;;19.03;100.00
19236;BME280;9752;54.270;12.470;2023-05-20T17:04:30;102603.06;;;17.13;100.00
19236;BME280;9752;54.270;12.470;2023-05-20T17:09:32;102593.25;;;17.67;100.00
19236;BME280;9752;54.270;12.470;2023-05-20T17:14:34;102576.69;;;19.06;100.00
19236;BME280;9752;54.270;12.470;2023-05-20T17:19:37;102579.56;;;18.32;100.00
19236;BME280;9752;54.270;12.470;2023-05-20T17:24:39;102586.63;;;17.44;100.00
19236;BME280;9752;54.270;12.470;2023-05-20T17:29:40;102573.63;;;18.51;100.00
19236;BME280;9752;54.270;12.470;2023-05-20T17:34:43;102578.03;;;18.36;100.00
19236;BME280;9752;54.270;12.470;2023-05-20T17:39:45;102574.47;;;17.31;100.00
19236;BME280;9752;54.270;12.470;2023-05-20T17:44:47;102577.19;;;17.04;100.00
19236;BME280;9752;54.270;12.470;2023-05-20T17:49:50;102583.59;;;14.99;100.00
19236;BME280;9752;54.270;12.470;2023-05-20T17:54:52;102571.25;;;16.38;100.00
19236;BME280;9752;54.270;12.470;2023-05-20T17:59:54;102585.94;;;15.58;100.00
19236;BME280;9752;54.270;12.470;2023-05-20T18:04:57;102586.84;;;15.58;100.00
19236;BME280;9752;54.270;12.470;2023-05-20T18:09:58;102582.19;;;14.20;100.00
19236;BME280;9752;54.270;12.470;2023-05-20T18:15:00;102580.47;;;13.85;100.00
19236;BME280;9752;54.270;12.470;2023-05-20T18:20:04;102566.66;;;13.52;100.00
19236;BME280;9752;54.270;12.470;2023-05-20T18:25:07;102564.72;;;13.38;100.00
19236;BME280;9752;54.270;12.470;2023-05-20T18:30:09;102576.03;;;13.16;100.00
19236;BME280;9752;54.270;12.470;2023-05-20T18:35:12;102571.88;;;12.96;100.00
19236;BME280;9752;54.270;12.470;2023-05-20T18:40:14;102569.84;;;12.60;100.00
19236;BME280;9752;54.270;12.470;2023-05-20T18:45:16;102566.31;;;12.37;100.00
19236;BME280;9752;54.270;12.470;2023-05-20T18:50:19;102560.66;;;12.10;100.00
19236;BME280;9752;54.270;12.470;2023-05-20T18:55:20;102557.56;;;11.73;100.00
19236;BME280;9752;54.270;12.470;2023-05-20T19:00:23;102558.34;;;11.42;100.00
19236;BME280;9752;54.270;12.470;2023-05-20T19:05:26;102550.41;;;11.20;100.00
19236;BME280;9752;54.270;12.470;2023-05-20T19:10:27;102546.75;;;10.97;100.00
19236;BME280;9752;54.270;12.470;2023-05-20T19:15:29;102552.56;;;10.84;100.00
19236;BME280;9752;54.270;12.470;2023-05-20T19:20:32;102553.22;;;10.82;100.00
19236;BME280;9752;54.270;12.470;2023-05-20T19:25:34;102555.53;;;10.79;100.00
19236;BME280;9752;54.270;12.470;2023-05-20T19:30:35;102551.00;;;10.76;100.00
19236;BME280;9752;54.270;12.470;2023-05-20T19:35:38;102550.03;;;10.65;100.00
19236;BME280;9752;54.270;12.470;2023-05-20T19:40:42;102553.78;;;10.59;100.00
19236;BME280;9752;54.270;12.470;2023-05-20T19:45:43;102552.47;;;10.53;100.00
19236;BME280;9752;54.270;12.470;2023-05-20T19:50:46;102555.28;;;10.46;100.00
19236;BME280;9752;54.270;12.470;2023-05-20T19:55:48;102561.88;;;10.43;100.00
19236;BME280;9752;54.270;12.470;2023-05-20T20:00:50;102558.66;;;10.45;100.00
19236;BME280;9752;54.270;12.470;2023-05-20T20:05:53;102550.88;;;10.45;100.00
19236;BME280;9752;54.270;12.470;2023-05-20T20:10:56;102559.72;;;10.47;100.00
19236;BME280;9752;54.270;12.470;2023-05-20T20:15:58;102541.81;;;10.50;100.00
19236;BME280;9752;54.270;12.470;2023-05-20T20:21:01;102538.84;;;10.56;100.00
19236;BME280;9752;54.270;12.470;2023-05-20T20:26:05;102537.78;;;10.54;100.00
19236;BME280;9752;54.270;12.470;2023-05-20T20:31:06;102539.63;;;10.55;100.00
19236;BME280;9752;54.270;12.470;2023-05-20T20:36:09;102536.91;;;10.53;100.00
19236;BME280;9752;54.270;12.470;2023-05-20T20:41:11;102534.44;;;10.55;100.00
19236;BME280;9752;54.270;12.470;2023-05-20T20:46:15;102538.22;;;10.59;100.00
19236;BME280;9752;54.270;12.470;2023-05-20T20:51:18;102531.03;;;10.46;100.00
19236;BME280;9752;54.270;12.470;2023-05-20T20:56:20;102534.34;;;10.34;100.00
19236;BME280;9752;54.270;12.470;2023-05-20T21:01:22;102528.97;;;10.23;100.00
19236;BME280;9752;54.270;12.470;2023-05-20T21:06:26;102530.88;;;10.15;100.00
19236;BME280;9752;54.270;12.470;2023-05-20T21:11:28;102536.06;;;10.15;100.00
19236;BME280;9752;54.270;12.470;2023-05-20T21:16:29;102527.84;;;10.10;100.00
19236;BME280;9752;54.270;12.470;2023-05-20T21:21:32;102531.78;;;10.15;100.00
19236;BME280;9752;54.270;12.470;2023-05-20T21:26:35;102540.66;;;10.09;100.00
19236;BME280;9752;54.270;12.470;2023-05-20T21:31:37;102548.78;;;10.03;100.00
19236;BME280;9752;54.270;12.470;2023-05-20T21:36:40;102545.25;;;9.92;100.00
19236;BME280;9752;54.270;12.470;2023-05-20T21:41:41;102540.13;;;9.84;100.00
19236;BME280;9752;54.270;12.470;2023-05-20T21:46:43;102543.22;;;9.80;100.00
19236;BME280;9752;54.270;12.470;2023-05-20T21:51:46;102533.91;;;9.82;100.00
19236;BME280;9752;54.270;12.470;2023-05-20T21:56:48;102542.03;;;9.76;100.00
19236;BME280;9752;54.270;12.470;2023-05-20T22:01:50;102543.28;;;9.71;100.00
19236;BME280;9752;54.270;12.470;2023-05-20T22:06:53;102531.25;;;9.71;100.00
19236;BME280;9752;54.270;12.470;2023-05-20T22:11:55;102536.69;;;9.74;100.00
19236;BME280;9752;54.270;12.470;2023-05-20T22:16:57;102529.00;;;9.85;100.00
19236;BME280;9752;54.270;12.470;2023-05-20T22:22:00;102532.41;;;9.94;100.00
19236;BME280;9752;54.270;12.470;2023-05-20T22:27:02;102532.47;;;10.04;100.00
19236;BME280;9752;54.270;12.470;2023-05-20T22:32:05;102528.19;;;10.05;100.00
19236;BME280;9752;54.270;12.470;2023-05-20T22:37:08;102536.66;;;10.12;100.00
19236;BME280;9752;54.270;12.470;2023-05-20T22:42:11;102539.19;;;10.21;100.00
19236;BME280;9752;54.270;12.470;2023-05-20T22:47:12;102539.59;;;10.26;100.00
19236;BME280;9752;54.270;12.470;2023-05-20T22:52:15;102531.03;;;10.27;100.00
19236;BME280;9752;54.270;12.470;2023-05-20T22:57:17;102524.88;;;10.35;100.00
19236;BME280;9752;54.270;12.470;2023-05-20T23:02:19;102512.94;;;10.37;100.00
19236;BME280;9752;54.270;12.470;2023-05-20T23:07:23;102515.63;;;10.28;100.00
19236;BME280;9752;54.270;12.470;2023-05-20T23:12:25;102521.25;;;10.33;100.00
19236;BME280;9752;54.270;12.470;2023-05-20T23:17:27;102523.97;;;10.34;100.00
19236;BME280;9752;54.270;12.470;2023-05-20T23:22:30;102526.91;;;10.29;100.00
19236;BME280;9752;54.270;12.470;2023-05-20T23:27:32;102519.41;;;10.32;100.00
19236;BME280;9752;54.270;12.470;2023-05-20T23:32:33;102528.59;;;10.28;100.00
19236;BME280;9752;54.270;12.470;2023-05-20T23:37:36;102527.25;;;10.23;100.00
19236;BME280;9752;54.270;12.470;2023-05-20T23:42:40;102525.84;;;10.27;100.00
19236;BME280;9752;54.270;12.470;2023-05-20T23:47:41;102525.84;;;10.27;100.00
19236;BME280;9752;54.270;12.470;2023-05-20T23:52:45;102525.06;;;10.28;100.00
19236;BME280;9752;54.270;12.470;2023-05-20T23:57:46;102530.75;;;10.24;100.00
